createdAt,value
2019-01-29T00:03:22.699Z,8.50
2019-01-29T00:06:05.026Z,6.50
2019-01-29T00:08:46.705Z,6.43
2019-01-29T00:11:29.174Z,6.90
2019-01-29T00:14:13.041Z,6.70
2019-01-29T00:16:55.237Z,7.53
2019-01-29T00:19:37.269Z,8.83
2019-01-29T00:22:07.792Z,10.30
2019-01-29T00:24:50.059Z,6.53
2019-01-29T00:27:32.236Z,7.10
2019-01-29T00:30:14.377Z,9.63
2019-01-29T00:32:56.744Z,6.00
2019-01-29T00:35:38.708Z,6.43
2019-01-29T00:38:19.532Z,6.37
2019-01-29T00:41:01.393Z,5.60
2019-01-29T00:43:43.492Z,6.17
2019-01-29T00:46:25.972Z,6.03
2019-01-29T00:49:07.758Z,6.13
2019-01-29T00:51:49.609Z,5.27
2019-01-29T00:54:32.040Z,4.87
2019-01-29T00:57:14.315Z,5.57
2019-01-29T00:59:56.343Z,6.20
2019-01-29T01:02:38.864Z,6.07
2019-01-29T01:05:20.578Z,6.03
2019-01-29T01:08:02.928Z,5.63
2019-01-29T01:10:44.760Z,4.10
2019-01-29T01:13:26.673Z,4.63
2019-01-29T01:16:08.786Z,5.77
2019-01-29T01:18:52.952Z,4.37
2019-01-29T01:21:35.106Z,7.63
2019-01-29T01:24:17.125Z,4.57
2019-01-29T01:26:59.415Z,4.97
2019-01-29T01:29:41.407Z,4.37
2019-01-29T01:32:23.648Z,5.13
2019-01-29T01:35:05.617Z,5.20
2019-01-29T01:37:47.700Z,4.90
2019-01-29T01:40:29.928Z,4.80
2019-01-29T01:43:11.918Z,4.30
2019-01-29T01:45:53.994Z,4.60
2019-01-29T01:48:35.922Z,5.40
2019-01-29T01:51:17.936Z,5.83
2019-01-29T01:56:58.894Z,6.20
2019-01-29T01:59:41.411Z,6.53
2019-01-29T02:02:23.897Z,5.97
2019-01-29T02:05:06.107Z,6.23
2019-01-29T02:07:48.366Z,7.23
2019-01-29T02:10:30.946Z,6.37
2019-01-29T02:13:13.046Z,4.70
2019-01-29T02:15:55.340Z,8.00
2019-01-29T02:18:37.505Z,4.03
2019-01-29T02:21:19.541Z,6.57
2019-01-29T02:24:01.613Z,5.43
2019-01-29T02:26:44.908Z,6.97
2019-01-29T02:32:26.375Z,6.30
2019-01-29T02:35:08.370Z,5.93
2019-01-29T02:37:50.473Z,5.60
2019-01-29T02:40:32.535Z,4.83
2019-01-29T02:43:14.344Z,6.30
2019-01-29T02:45:56.501Z,5.50
2019-01-29T02:48:38.708Z,5.43
2019-01-29T02:51:20.741Z,5.63
2019-01-29T02:54:03.290Z,7.13
2019-01-29T02:56:45.390Z,5.33
2019-01-29T02:59:27.707Z,4.07
2019-01-29T03:05:06.279Z,4.17
2019-01-29T03:07:48.381Z,3.70
2019-01-29T03:10:30.603Z,5.10
2019-01-29T03:13:12.659Z,5.87
2019-01-29T03:15:55.604Z,5.17
2019-01-29T03:18:36.211Z,3.70
2019-01-29T03:21:18.183Z,4.97
2019-01-29T03:24:00.581Z,5.60
2019-01-29T03:26:42.653Z,5.27
2019-01-29T03:29:24.576Z,4.40
2019-01-29T03:32:06.286Z,5.53
2019-01-29T03:34:48.336Z,5.97
2019-01-29T03:37:30.499Z,4.23
2019-01-29T03:40:09.973Z,4.87
2019-01-29T03:42:52.177Z,4.97
2019-01-29T03:45:34.380Z,4.57
2019-01-29T03:48:16.451Z,3.93
2019-01-29T03:53:54.779Z,5.40
2019-01-29T03:56:25.147Z,3.33
2019-01-29T03:59:14.512Z,5.27
2019-01-29T04:01:56.462Z,4.10
2019-01-29T04:04:36.968Z,4.97
2019-01-29T04:07:19.028Z,4.23
2019-01-29T04:10:00.683Z,4.50
2019-01-29T04:12:42.370Z,6.20
2019-01-29T04:15:24.268Z,4.90
2019-01-29T04:18:06.433Z,5.33
2019-01-29T04:20:48.791Z,5.03
2019-01-29T04:23:30.921Z,4.43
2019-01-29T04:26:13.115Z,4.17
2019-01-29T04:28:55.085Z,4.57
2019-01-29T04:31:37.389Z,4.67
2019-01-29T04:34:19.388Z,4.30
2019-01-29T04:37:01.251Z,6.50
2019-01-29T04:39:44.325Z,6.17
2019-01-29T04:42:26.475Z,4.33
2019-01-29T04:45:08.496Z,4.47
2019-01-29T04:47:50.647Z,4.67
2019-01-29T04:50:32.296Z,6.03
2019-01-29T04:53:14.377Z,4.33
2019-01-29T04:55:56.972Z,5.93
2019-01-29T04:58:39.033Z,5.13
2019-01-29T05:01:21.106Z,5.37
2019-01-29T05:04:03.480Z,4.70
2019-01-29T05:06:45.601Z,5.77
2019-01-29T05:09:27.609Z,5.83
2019-01-29T05:12:09.554Z,5.43
2019-01-29T05:14:51.651Z,2.63
2019-01-29T05:17:33.883Z,6.40
2019-01-29T05:20:16.061Z,4.63
2019-01-29T05:22:57.735Z,4.50
2019-01-29T05:25:39.252Z,4.07
2019-01-29T05:28:22.665Z,4.77
2019-01-29T05:31:05.368Z,4.50
2019-01-29T05:33:47.158Z,3.17
2019-01-29T05:36:29.037Z,5.93
2019-01-29T05:39:11.323Z,4.43
2019-01-29T05:41:52.965Z,4.00
2019-01-29T05:44:34.896Z,3.43
2019-01-29T05:47:17.337Z,6.37
2019-01-29T05:49:59.439Z,4.87
2019-01-29T05:52:42.076Z,3.37
2019-01-29T05:55:23.864Z,5.83
2019-01-29T05:58:06.068Z,5.30
2019-01-29T06:00:48.284Z,3.80
2019-01-29T06:03:30.531Z,5.37
2019-01-29T06:06:12.805Z,10.03
2019-01-29T06:08:54.513Z,5.43
2019-01-29T06:11:37.341Z,6.20
2019-01-29T06:14:19.420Z,4.53
2019-01-29T06:17:01.231Z,6.33
2019-01-29T06:19:31.657Z,5.90
2019-01-29T06:22:21.088Z,4.63
2019-01-29T06:25:03.815Z,6.80
2019-01-29T06:27:46.115Z,5.10
2019-01-29T06:30:28.498Z,7.20
2019-01-29T06:33:11.048Z,5.10
2019-01-29T06:35:53.239Z,5.43
2019-01-29T06:38:35.245Z,4.87
2019-01-29T06:41:17.655Z,5.60
2019-01-29T06:44:00.861Z,6.67
2019-01-29T06:46:42.694Z,4.67
2019-01-29T06:49:24.812Z,5.43
2019-01-29T06:52:06.860Z,4.80
2019-01-29T06:54:37.164Z,6.43
2019-01-29T06:57:19.323Z,4.13
2019-01-29T07:00:01.569Z,5.43
2019-01-29T07:02:44.915Z,6.30
2019-01-29T07:05:27.331Z,4.37
2019-01-29T07:08:09.232Z,5.40
2019-01-29T07:10:52.132Z,6.43
2019-01-29T07:13:22.743Z,5.77
2019-01-29T07:16:31.115Z,5.47
2019-01-29T07:19:20.519Z,7.13
2019-01-29T07:22:02.795Z,7.03
2019-01-29T07:24:44.979Z,7.37
2019-01-29T07:27:15.443Z,5.40
2019-01-29T07:29:57.343Z,4.90
2019-01-29T07:32:39.619Z,7.57
2019-01-29T07:35:21.987Z,5.40
2019-01-29T07:38:04.273Z,5.03
2019-01-29T07:40:35.583Z,5.10
2019-01-29T07:43:25.042Z,6.87
2019-01-29T07:46:07.494Z,5.30
2019-01-29T07:48:49.426Z,5.60
2019-01-29T07:51:31.529Z,6.47
2019-01-29T07:54:13.681Z,4.77
2019-01-29T07:56:56.128Z,6.13
2019-01-29T07:59:37.997Z,6.10
2019-01-29T08:02:20.065Z,6.40
2019-01-29T08:05:02.300Z,7.80
2019-01-29T08:07:44.186Z,7.63
2019-01-29T08:10:26.583Z,10.03
2019-01-29T08:13:08.691Z,12.07
2019-01-29T08:15:50.865Z,11.07
2019-01-29T08:18:33.121Z,10.50
2019-01-29T08:21:15.363Z,9.83
2019-01-29T08:23:56.988Z,12.53
2019-01-29T08:26:38.844Z,10.57
2019-01-29T08:29:21.058Z,12.43
2019-01-29T08:32:03.210Z,13.77
2019-01-29T08:34:45.346Z,14.07
2019-01-29T08:37:27.383Z,11.37
2019-01-29T08:40:09.128Z,10.23
2019-01-29T08:42:49.974Z,10.37
2019-01-29T08:45:32.103Z,10.93
2019-01-29T08:48:14.135Z,13.90
2019-01-29T08:50:56.916Z,15.70
2019-01-29T08:53:39.010Z,15.37
2019-01-29T08:56:21.143Z,19.53
2019-01-29T08:59:03.168Z,16.70
2019-01-29T09:01:45.237Z,12.83
2019-01-29T09:04:27.441Z,12.43
2019-01-29T09:07:10.302Z,11.40
2019-01-29T09:09:52.383Z,11.53
2019-01-29T09:12:34.763Z,11.73
2019-01-29T09:15:16.966Z,9.10
2019-01-29T09:17:59.531Z,15.47
2019-01-29T09:20:41.747Z,10.90
2019-01-29T09:23:12.225Z,12.40
2019-01-29T09:26:01.625Z,14.53
2019-01-29T09:28:43.867Z,10.83
2019-01-29T09:31:26.379Z,15.83
2019-01-29T09:34:08.724Z,12.37
2019-01-29T09:36:53.094Z,11.50
2019-01-29T09:39:35.568Z,11.63
2019-01-29T09:42:18.307Z,10.77
2019-01-29T09:48:03.151Z,11.80
2019-01-29T09:50:45.502Z,10.90
2019-01-29T09:53:27.884Z,12.93
2019-01-29T09:56:10.173Z,11.27
2019-01-29T09:58:52.262Z,10.40
2019-01-29T10:01:34.643Z,10.40
2019-01-29T10:04:16.596Z,10.20
2019-01-29T10:06:59.105Z,7.83
2019-01-29T10:09:40.795Z,8.60
2019-01-29T10:12:22.336Z,10.03
2019-01-29T10:15:02.962Z,11.70
2019-01-29T10:17:44.520Z,15.83
2019-01-29T10:20:26.963Z,16.87
2019-01-29T10:23:08.664Z,19.77
2019-01-29T10:25:51.979Z,20.77
2019-01-29T10:28:34.009Z,15.57
2019-01-29T10:31:15.823Z,17.30
2019-01-29T10:33:58.817Z,18.53
2019-01-29T10:36:36.506Z,19.27
2019-01-29T10:39:19.051Z,16.70
2019-01-29T10:42:01.521Z,14.70
2019-01-29T10:44:43.769Z,10.67
2019-01-29T10:47:25.983Z,9.53
2019-01-29T10:50:08.320Z,10.03
2019-01-29T10:52:50.620Z,8.43
2019-01-29T10:55:24.148Z,8.77
2019-01-29T10:58:06.535Z,10.83
2019-01-29T11:00:48.528Z,10.70
2019-01-29T11:03:31.286Z,8.75
2019-01-29T11:06:13.444Z,10.03
2019-01-29T11:08:55.572Z,8.60
2019-01-29T11:11:37.932Z,8.00
2019-01-29T11:14:21.276Z,9.33
2019-01-29T11:17:03.759Z,9.83
2019-01-29T11:19:46.085Z,9.20
2019-01-29T11:22:28.669Z,8.37
2019-01-29T11:25:11.131Z,8.00
2019-01-29T11:27:53.739Z,7.83
2019-01-29T11:30:36.327Z,8.10
2019-01-29T11:33:18.283Z,8.80
2019-01-29T11:36:00.673Z,6.60
2019-01-29T11:38:42.716Z,8.20
2019-01-29T11:41:24.970Z,7.07
2019-01-29T11:44:07.241Z,7.00
2019-01-29T11:46:49.728Z,7.10
2019-01-29T11:49:31.936Z,6.80
2019-01-29T11:52:13.974Z,6.63
2019-01-29T11:54:56.456Z,7.77
2019-01-29T11:57:26.991Z,7.90
2019-01-29T12:03:30.645Z,7.83
2019-01-29T12:06:02.051Z,8.07
2019-01-29T12:08:44.867Z,9.73
2019-01-29T12:11:26.779Z,8.77
2019-01-29T12:14:10.913Z,9.67
2019-01-29T12:16:54.372Z,7.97
2019-01-29T12:19:36.271Z,8.60
2019-01-29T12:22:18.376Z,7.30
2019-01-29T12:25:00.628Z,7.40
2019-01-29T12:27:44.763Z,10.70
2019-01-29T12:30:27.186Z,7.87
2019-01-29T12:33:10.456Z,6.00
2019-01-29T12:35:52.472Z,6.23
2019-01-29T12:38:34.692Z,9.70
2019-01-29T12:41:16.669Z,6.13
2019-01-29T12:43:58.737Z,7.80
2019-01-29T12:46:40.816Z,7.07
2019-01-29T12:49:22.836Z,6.63
2019-01-29T12:52:26.676Z,9.00
2019-01-29T12:55:08.656Z,7.67
2019-01-29T12:57:51.035Z,7.10
2019-01-29T13:00:54.016Z,5.23
2019-01-29T13:03:35.987Z,8.03
2019-01-29T13:06:18.121Z,7.87
2019-01-29T13:08:59.840Z,8.60
2019-01-29T13:11:41.876Z,9.20
2019-01-29T13:14:24.008Z,7.90
2019-01-29T13:17:06.326Z,9.37
2019-01-29T13:19:48.545Z,7.87
2019-01-29T13:22:31.052Z,8.30
2019-01-29T13:25:13.364Z,7.60
2019-01-29T13:27:55.307Z,9.20
2019-01-29T13:30:38.643Z,7.83
2019-01-29T13:33:21.039Z,9.03
2019-01-29T13:36:03.286Z,9.53
2019-01-29T13:38:45.629Z,9.97
2019-01-29T13:41:27.691Z,9.77
2019-01-29T13:44:11.521Z,8.73
2019-01-29T13:46:55.736Z,8.90
2019-01-29T13:49:37.850Z,9.00
2019-01-29T13:52:20.175Z,10.73
2019-01-29T13:55:01.952Z,10.57
2019-01-29T13:57:44.185Z,12.30
2019-01-29T14:00:26.628Z,11.20
2019-01-29T14:03:09.722Z,9.10
2019-01-29T14:05:52.054Z,12.68
2019-01-29T14:08:34.276Z,11.00
2019-01-29T14:11:17.663Z,9.40
2019-01-29T14:13:59.820Z,10.60
2019-01-29T14:16:42.056Z,10.00
2019-01-29T14:19:24.018Z,7.97
2019-01-29T14:22:06.008Z,10.13
2019-01-29T14:24:48.460Z,9.63
2019-01-29T14:27:33.177Z,13.15
2019-01-29T14:30:14.853Z,12.57
2019-01-29T14:32:56.493Z,12.50
2019-01-29T14:35:38.956Z,13.27
2019-01-29T14:38:21.253Z,13.00
2019-01-29T14:41:03.877Z,12.77
2019-01-29T14:43:46.358Z,14.00
2019-01-29T14:46:28.508Z,10.97
2019-01-29T14:49:10.532Z,10.67
2019-01-29T14:51:52.937Z,12.43
2019-01-29T14:54:35.201Z,10.47
2019-01-29T14:57:17.141Z,14.73
2019-01-29T14:59:59.363Z,13.33
2019-01-29T15:02:29.755Z,11.63
2019-01-29T15:05:19.137Z,12.50
2019-01-29T15:08:00.829Z,10.53
2019-01-29T15:10:42.897Z,13.23
2019-01-29T15:13:24.884Z,12.47
2019-01-29T15:16:25.869Z,10.40
2019-01-29T15:19:14.092Z,10.10
2019-01-29T15:21:56.656Z,14.00
2019-01-29T15:24:39.029Z,11.80
2019-01-29T15:27:21.178Z,14.03
2019-01-29T15:30:03.713Z,12.40
2019-01-29T15:32:46.319Z,14.90
2019-01-29T15:35:28.303Z,11.83
2019-01-29T15:38:10.598Z,12.63
2019-01-29T15:40:52.928Z,15.07
2019-01-29T15:43:35.784Z,12.23
2019-01-29T15:46:18.018Z,12.77
2019-01-29T15:49:00.186Z,14.33
2019-01-29T15:51:42.612Z,12.17
2019-01-29T15:54:24.869Z,13.30
2019-01-29T15:57:14.072Z,14.70
2019-01-29T15:59:43.109Z,13.67
2019-01-29T16:02:28.917Z,16.30
2019-01-29T16:05:11.244Z,17.60
2019-01-29T16:07:53.440Z,14.97
2019-01-29T16:10:39.721Z,21.90
2019-01-29T16:13:17.940Z,22.53
2019-01-29T16:16:00.200Z,23.07
2019-01-29T16:18:42.491Z,15.60
2019-01-29T16:21:25.007Z,18.33
2019-01-29T16:24:07.206Z,32.73
2019-01-29T16:26:49.791Z,17.50
2019-01-29T16:29:32.222Z,16.93
2019-01-29T16:32:14.519Z,17.70
2019-01-29T16:34:56.580Z,24.07
2019-01-29T16:37:39.070Z,19.47
2019-01-29T16:43:21.972Z,14.90
2019-01-29T16:46:04.345Z,16.67
2019-01-29T16:48:46.344Z,18.17
2019-01-29T16:51:28.271Z,15.37
2019-01-29T16:54:10.424Z,18.43
2019-01-29T16:56:52.233Z,16.57
2019-01-29T16:59:34.252Z,16.17
2019-01-29T17:02:16.283Z,12.97
2019-01-29T17:04:58.615Z,18.53
2019-01-29T17:07:40.850Z,13.73
2019-01-29T17:10:23.299Z,16.37
2019-01-29T17:13:05.631Z,14.73
2019-01-29T17:15:47.867Z,15.87
2019-01-29T17:18:30.172Z,14.30
2019-01-29T17:21:12.525Z,17.83
2019-01-29T17:23:54.269Z,17.27
2019-01-29T17:26:36.463Z,13.70
2019-01-29T17:29:18.707Z,16.23
2019-01-29T17:32:00.948Z,14.33
2019-01-29T17:34:45.064Z,15.23
2019-01-29T17:37:27.044Z,15.80
2019-01-29T17:40:09.062Z,15.10
2019-01-29T17:42:51.424Z,12.80
2019-01-29T17:45:33.308Z,14.63
2019-01-29T17:48:16.167Z,12.17
2019-01-29T17:50:58.308Z,11.60
2019-01-29T17:53:40.560Z,10.97
2019-01-29T17:56:23.108Z,12.63
2019-01-29T17:59:05.511Z,18.20
2019-01-29T18:01:49.607Z,19.57
2019-01-29T18:04:32.203Z,18.67
2019-01-29T18:07:14.939Z,18.00
2019-01-29T18:09:56.918Z,15.03
2019-01-29T18:12:41.475Z,16.10
2019-01-29T18:15:35.627Z,15.50
2019-01-29T18:18:18.019Z,15.47
2019-01-29T18:21:00.350Z,13.20
2019-01-29T18:23:30.731Z,17.47
2019-01-29T18:26:12.760Z,16.13
2019-01-29T18:28:54.928Z,14.97
2019-01-29T18:31:37.218Z,16.70
2019-01-29T18:34:19.446Z,13.20
2019-01-29T18:37:01.864Z,17.80
2019-01-29T18:39:47.704Z,18.63
2019-01-29T18:42:31.853Z,15.17
2019-01-29T18:45:14.024Z,18.17
2019-01-29T18:47:56.408Z,16.90
2019-01-29T18:50:38.648Z,15.47
2019-01-29T18:53:20.852Z,17.03
2019-01-29T18:56:03.159Z,15.70
2019-01-29T18:58:45.915Z,14.63
2019-01-29T19:01:28.150Z,14.87
2019-01-29T19:04:10.476Z,16.43
2019-01-29T19:06:52.863Z,14.73
2019-01-29T19:09:35.225Z,17.00
2019-01-29T19:12:17.479Z,21.17
2019-01-29T19:15:00.720Z,21.57
2019-01-29T19:17:42.668Z,12.93
2019-01-29T19:20:25.076Z,12.03
2019-01-29T19:23:07.036Z,12.63
2019-01-29T19:25:49.169Z,10.97
2019-01-29T19:28:31.238Z,12.93
2019-01-29T19:31:13.732Z,10.77
2019-01-29T19:33:55.736Z,11.10
2019-01-29T19:36:38.272Z,13.77
2019-01-29T19:39:21.398Z,12.77
2019-01-29T19:42:03.333Z,13.43
2019-01-29T19:44:45.355Z,13.17
2019-01-29T19:47:27.584Z,16.20
2019-01-29T19:50:09.557Z,12.93
2019-01-29T19:52:51.954Z,10.80
2019-01-29T19:55:33.835Z,14.63
2019-01-29T19:58:15.981Z,16.23
2019-01-29T20:00:58.274Z,14.63
2019-01-29T20:03:40.031Z,15.00
2019-01-29T20:06:22.204Z,21.70
2019-01-29T20:09:05.948Z,17.73
2019-01-29T20:11:36.388Z,17.50
2019-01-29T20:14:18.705Z,13.97
2019-01-29T20:17:01.194Z,15.87
2019-01-29T20:19:44.393Z,14.63
2019-01-29T20:22:26.281Z,13.47
2019-01-29T20:25:07.924Z,13.50
2019-01-29T20:27:53.005Z,12.40
2019-01-29T20:30:34.546Z,17.93
2019-01-29T20:33:16.704Z,19.10
2019-01-29T20:35:47.012Z,17.07
2019-01-29T20:38:36.491Z,18.07
2019-01-29T20:41:18.922Z,26.80
2019-01-29T20:44:00.861Z,22.73
2019-01-29T20:46:44.117Z,17.07
2019-01-29T20:49:26.137Z,18.27
2019-01-29T20:52:08.392Z,15.20
2019-01-29T20:54:50.732Z,13.63
2019-01-29T20:57:25.219Z,15.87
2019-01-29T21:00:16.203Z,15.30
2019-01-29T21:02:58.619Z,12.30
2019-01-29T21:05:40.624Z,13.40
2019-01-29T21:08:22.267Z,13.20
2019-01-29T21:11:04.332Z,12.83
2019-01-29T21:13:46.793Z,12.23
2019-01-29T21:16:28.918Z,12.30
2019-01-29T21:22:10.404Z,11.93
2019-01-29T21:24:52.692Z,10.63
2019-01-29T21:27:35.224Z,11.27
2019-01-29T21:30:09.307Z,11.30
2019-01-29T21:32:52.120Z,10.10
2019-01-29T21:35:33.989Z,10.87
2019-01-29T21:38:04.668Z,11.20
2019-01-29T21:40:56.984Z,11.77
2019-01-29T21:43:46.392Z,10.40
2019-01-29T21:46:28.011Z,10.90
2019-01-29T21:49:09.905Z,10.50
2019-01-29T21:51:53.487Z,9.70
2019-01-29T21:54:39.068Z,9.07
2019-01-29T21:57:20.824Z,11.17
2019-01-29T22:00:03.099Z,9.83
2019-01-29T22:02:45.236Z,10.53
2019-01-29T22:05:27.619Z,10.27
2019-01-29T22:08:09.500Z,9.17
2019-01-29T22:10:52.041Z,10.63
2019-01-29T22:13:34.756Z,9.47
2019-01-29T22:16:17.096Z,9.50
2019-01-29T22:18:59.103Z,11.90
2019-01-29T22:21:41.595Z,9.63
2019-01-29T22:24:23.260Z,10.57
2019-01-29T22:27:05.315Z,12.20
2019-01-29T22:29:47.528Z,9.67
2019-01-29T22:32:29.640Z,9.73
2019-01-29T22:35:11.759Z,8.73
2019-01-29T22:37:54.957Z,9.03
2019-01-29T22:40:37.020Z,8.77
2019-01-29T22:43:19.212Z,8.27
2019-01-29T22:46:01.420Z,9.40
2019-01-29T22:48:43.288Z,9.53
2019-01-29T22:51:25.239Z,9.70
2019-01-29T22:54:07.232Z,8.53
2019-01-29T22:56:49.403Z,10.07
2019-01-29T22:59:33.313Z,9.30
2019-01-29T23:02:15.140Z,8.07
2019-01-29T23:04:58.715Z,8.87
2019-01-29T23:07:40.372Z,8.77
2019-01-29T23:10:22.763Z,8.67
2019-01-29T23:13:04.777Z,8.10
2019-01-29T23:15:48.613Z,8.17
2019-01-29T23:18:30.358Z,7.63
2019-01-29T23:21:12.636Z,6.97
2019-01-29T23:23:54.458Z,7.50
2019-01-29T23:26:38.383Z,7.43
2019-01-29T23:29:20.353Z,11.63
2019-01-29T23:32:02.479Z,8.07
2019-01-29T23:34:44.539Z,8.00
2019-01-29T23:37:26.795Z,6.63
2019-01-29T23:40:09.049Z,7.40
2019-01-29T23:42:53.152Z,10.63
2019-01-29T23:45:35.395Z,7.83
2019-01-29T23:48:17.508Z,7.97
2019-01-29T23:50:59.699Z,7.07
2019-01-29T23:53:42.260Z,7.17
2019-01-29T23:56:24.301Z,8.23
2019-01-29T23:59:06.333Z,7.03
